createdAt,value
2017-10-30T00:00:21.866Z,99.21
2017-10-30T00:01:21.831Z,98.35
2017-10-30T00:02:21.813Z,98.35
2017-10-30T00:03:21.824Z,99.30
2017-10-30T00:04:21.768Z,98.54
2017-10-30T00:05:21.836Z,99.30
2017-10-30T00:06:21.728Z,99.11
2017-10-30T00:07:21.735Z,99.21
2017-10-30T00:08:21.691Z,99.21
2017-10-30T00:09:21.661Z,99.21
2017-10-30T00:10:21.649Z,99.02
2017-10-30T00:11:21.613Z,98.92
2017-10-30T00:12:21.641Z,99.49
2017-10-30T00:13:21.588Z,99.30
2017-10-30T00:14:21.569Z,99.21
2017-10-30T00:15:21.535Z,99.49
2017-10-30T00:16:21.509Z,98.92
2017-10-30T00:17:21.523Z,99.30
2017-10-30T00:18:21.467Z,98.83
2017-10-30T00:19:21.440Z,99.30
2017-10-30T00:20:21.417Z,99.30
2017-10-30T00:21:21.411Z,98.73
2017-10-30T00:22:21.418Z,99.30
2017-10-30T00:23:21.354Z,99.21
2017-10-30T00:24:21.343Z,98.54
2017-10-30T00:25:21.309Z,98.54
2017-10-30T00:26:21.294Z,98.54
2017-10-30T00:27:32.893Z,98.16
2017-10-30T00:28:21.249Z,98.64
2017-10-30T00:29:21.229Z,98.54
2017-10-30T00:30:21.199Z,98.73
2017-10-30T00:31:21.180Z,98.73
2017-10-30T00:32:21.162Z,99.40
2017-10-30T00:33:21.190Z,99.21
2017-10-30T00:34:21.120Z,99.02
2017-10-30T00:35:21.094Z,99.11
2017-10-30T00:36:21.070Z,98.92
2017-10-30T00:37:21.047Z,99.21
2017-10-30T00:38:21.076Z,98.83
2017-10-30T00:39:21.017Z,99.02
2017-10-30T00:40:21.028Z,98.83
2017-10-30T00:41:20.966Z,99.58
2017-10-30T00:42:20.938Z,99.21
2017-10-30T00:43:20.933Z,99.21
2017-10-30T00:44:20.944Z,98.83
2017-10-30T00:45:20.884Z,99.30
2017-10-30T00:46:20.854Z,99.21
2017-10-30T00:47:20.829Z,99.02
2017-10-30T00:48:30.370Z,99.11
2017-10-30T00:49:20.848Z,99.40
2017-10-30T00:50:20.764Z,99.02
2017-10-30T00:51:20.743Z,98.54
2017-10-30T00:52:20.724Z,99.21
2017-10-30T00:53:20.702Z,98.45
2017-10-30T00:54:20.721Z,98.26
2017-10-30T00:55:20.699Z,99.21
2017-10-30T00:56:20.634Z,99.21
2017-10-30T00:57:20.616Z,98.92
2017-10-30T00:58:20.590Z,98.54
2017-10-30T00:59:20.568Z,99.40
2017-10-30T01:00:20.580Z,99.21
2017-10-30T01:01:20.562Z,99.30
2017-10-30T01:02:20.502Z,98.45
2017-10-30T01:03:20.486Z,98.35
2017-10-30T01:04:20.536Z,98.26
2017-10-30T01:05:20.442Z,98.35
2017-10-30T01:06:20.417Z,98.45
2017-10-30T01:07:20.394Z,98.73
2017-10-30T01:08:20.373Z,98.64
2017-10-30T01:09:20.398Z,98.54
2017-10-30T01:10:20.328Z,98.26
2017-10-30T01:11:20.305Z,98.07
2017-10-30T01:12:20.290Z,98.16
2017-10-30T01:13:20.271Z,98.59
2017-10-30T01:14:20.288Z,98.12
2017-10-30T01:15:20.221Z,98.35
2017-10-30T01:16:20.198Z,98.40
2017-10-30T01:17:20.178Z,97.92
2017-10-30T01:18:20.157Z,97.45
2017-10-30T01:19:20.180Z,98.31
2017-10-30T01:20:29.924Z,97.92
2017-10-30T01:21:30.959Z,97.97
2017-10-30T01:22:20.073Z,97.92
2017-10-30T01:23:20.102Z,98.12
2017-10-30T01:24:20.038Z,98.12
2017-10-30T01:25:20.007Z,98.21
2017-10-30T01:26:19.980Z,97.45
2017-10-30T01:27:20.003Z,98.21
2017-10-30T01:28:19.938Z,98.26
2017-10-30T01:29:19.918Z,98.26
2017-10-30T01:30:19.904Z,98.73
2017-10-30T01:31:19.876Z,98.64
2017-10-30T01:32:19.893Z,98.73
2017-10-30T01:33:19.831Z,98.26
2017-10-30T01:34:19.809Z,98.45
2017-10-30T01:35:19.788Z,98.45
2017-10-30T01:36:19.771Z,98.45
2017-10-30T01:37:19.786Z,98.54
2017-10-30T01:38:19.723Z,98.35
2017-10-30T01:39:19.698Z,98.83
2017-10-30T01:40:19.680Z,98.45
2017-10-30T01:41:19.658Z,98.35
2017-10-30T01:42:19.685Z,98.45
2017-10-30T01:43:19.616Z,98.35
2017-10-30T01:44:19.602Z,97.88
2017-10-30T01:45:19.573Z,98.73
2017-10-30T01:46:19.549Z,99.30
2017-10-30T01:47:19.588Z,99.02
2017-10-30T01:48:19.505Z,99.30
2017-10-30T01:49:19.499Z,99.21
2017-10-30T01:50:19.471Z,99.02
2017-10-30T01:51:19.442Z,98.92
2017-10-30T01:52:19.463Z,98.92
2017-10-30T01:53:19.397Z,99.21
2017-10-30T01:54:19.375Z,98.92
2017-10-30T01:55:19.360Z,99.30
2017-10-30T01:56:19.334Z,99.40
2017-10-30T01:57:19.346Z,99.21
2017-10-30T01:58:19.292Z,99.30
2017-10-30T01:59:19.308Z,99.99
2017-10-30T02:00:19.243Z,99.49
2017-10-30T02:01:19.228Z,99.30
2017-10-30T02:02:19.210Z,99.97
2017-10-30T02:03:19.178Z,99.40
2017-10-30T02:04:19.197Z,99.21
2017-10-30T02:05:19.141Z,99.68
2017-10-30T02:06:27.068Z,99.77
2017-10-30T02:07:30.040Z,99.30
2017-10-30T02:08:19.078Z,99.30
2017-10-30T02:09:19.092Z,99.40
2017-10-30T02:10:19.030Z,99.87
2017-10-30T02:11:30.581Z,99.68
2017-10-30T02:12:18.993Z,99.30
2017-10-30T02:13:19.013Z,99.97
2017-10-30T02:14:18.940Z,99.77
2017-10-30T02:15:18.930Z,99.87
2017-10-30T02:16:18.946Z,99.99
2017-10-30T02:17:18.879Z,99.87
2017-10-30T02:18:18.854Z,99.30
2017-10-30T02:19:18.829Z,99.68
2017-10-30T02:20:18.806Z,99.77
2017-10-30T02:21:18.826Z,99.99
2017-10-30T02:22:18.767Z,99.49
2017-10-30T02:23:18.746Z,99.99
2017-10-30T02:24:18.766Z,99.68
2017-10-30T02:25:18.697Z,99.99
2017-10-30T02:26:18.676Z,99.99
2017-10-30T02:27:18.653Z,99.40
2017-10-30T02:28:18.633Z,99.77
2017-10-30T02:29:18.644Z,99.49
2017-10-30T02:30:18.593Z,99.49
2017-10-30T02:31:18.600Z,99.77
2017-10-30T02:32:18.545Z,99.68
2017-10-30T02:33:18.528Z,98.83
2017-10-30T02:34:18.504Z,99.49
2017-10-30T02:35:18.482Z,98.83
2017-10-30T02:36:18.498Z,99.21
2017-10-30T02:37:18.435Z,99.11
2017-10-30T02:38:18.416Z,99.30
2017-10-30T02:39:18.396Z,99.02
2017-10-30T02:40:18.415Z,99.11
2017-10-30T02:41:18.357Z,98.26
2017-10-30T02:42:18.332Z,99.40
2017-10-30T02:43:18.308Z,99.21
2017-10-30T02:44:18.295Z,98.45
2017-10-30T02:45:18.295Z,98.35
2017-10-30T02:46:18.244Z,98.73
2017-10-30T02:47:18.224Z,98.64
2017-10-30T02:48:18.204Z,98.16
2017-10-30T02:49:18.221Z,98.54
2017-10-30T02:50:18.154Z,98.35
2017-10-30T02:51:18.134Z,98.35
2017-10-30T02:52:18.120Z,99.11
2017-10-30T02:53:18.134Z,99.30
2017-10-30T02:54:18.070Z,99.21
2017-10-30T02:55:18.046Z,98.54
2017-10-30T02:56:18.028Z,99.21
2017-10-30T02:57:18.002Z,99.21
2017-10-30T02:58:18.015Z,99.40
2017-10-30T02:59:17.966Z,99.11
2017-10-30T03:00:17.936Z,98.92
2017-10-30T03:01:17.959Z,99.21
2017-10-30T03:02:17.892Z,98.92
2017-10-30T03:03:17.919Z,99.40
2017-10-30T03:04:17.850Z,99.40
2017-10-30T03:05:17.847Z,99.99
2017-10-30T03:08:01.162Z,99.49
2017-10-30T03:09:01.102Z,99.49
2017-10-30T03:10:01.112Z,99.35
2017-10-30T03:11:01.058Z,99.49
2017-10-30T03:12:01.074Z,99.77
2017-10-30T03:13:01.012Z,99.44
2017-10-30T03:14:00.990Z,99.99
2017-10-30T03:15:00.965Z,99.82
2017-10-30T03:16:00.949Z,99.99
2017-10-30T03:17:00.961Z,99.99
2017-10-30T03:18:00.905Z,99.63
2017-10-30T03:19:10.440Z,99.99
2017-10-30T03:20:00.856Z,99.73
2017-10-30T03:21:00.836Z,99.99
2017-10-30T03:22:00.845Z,99.91
2017-10-30T03:23:00.842Z,99.99
2017-10-30T03:24:00.767Z,99.99
2017-10-30T03:25:00.761Z,99.99
2017-10-30T03:26:00.720Z,99.99
2017-10-30T03:27:00.702Z,99.63
2017-10-30T03:28:00.713Z,99.77
2017-10-30T03:29:00.710Z,99.99
2017-10-30T03:30:00.632Z,99.54
2017-10-30T03:31:00.619Z,99.63
2017-10-30T03:32:00.597Z,99.63
2017-10-30T03:33:00.566Z,99.63
2017-10-30T03:34:00.581Z,99.35
2017-10-30T03:35:00.528Z,99.40
2017-10-30T03:36:00.550Z,99.21
2017-10-30T03:37:00.487Z,99.30
2017-10-30T03:38:00.462Z,99.49
2017-10-30T03:39:00.436Z,99.30
2017-10-30T03:40:00.417Z,99.30
2017-10-30T03:41:00.428Z,99.30
2017-10-30T03:42:00.408Z,99.68
2017-10-30T03:43:00.399Z,99.68
2017-10-30T03:44:00.325Z,99.11
2017-10-30T03:45:00.340Z,99.77
2017-10-30T03:46:00.317Z,99.11
2017-10-30T03:47:00.268Z,99.02
2017-10-30T03:48:00.300Z,99.68
2017-10-30T03:49:00.222Z,99.58
2017-10-30T03:50:00.203Z,99.40
2017-10-30T03:51:00.176Z,99.11
2017-10-30T03:52:00.147Z,98.64
2017-10-30T03:53:00.171Z,98.54
2017-10-30T03:54:00.113Z,98.45
2017-10-30T03:55:00.086Z,98.83
2017-10-30T03:56:00.067Z,98.73
2017-10-30T03:57:00.056Z,98.45
2017-10-30T03:58:00.490Z,98.73
2017-10-30T03:59:11.982Z,98.54
2017-10-30T04:00:10.517Z,98.26
2017-10-30T04:00:59.969Z,98.16
2017-10-30T04:01:59.938Z,97.88
2017-10-30T04:02:59.945Z,98.54
2017-10-30T04:03:59.893Z,97.88
2017-10-30T04:04:59.870Z,98.07
2017-10-30T04:05:59.855Z,97.41
2017-10-30T04:06:59.864Z,98.07
2017-10-30T04:07:59.811Z,98.26
2017-10-30T04:08:59.777Z,98.16
2017-10-30T04:09:59.755Z,97.88
2017-10-30T04:10:59.736Z,98.07
2017-10-30T04:11:59.759Z,97.88
2017-10-30T04:12:59.709Z,97.97
2017-10-30T04:13:59.672Z,97.88
2017-10-30T04:14:59.645Z,98.16
2017-10-30T04:15:59.624Z,98.45
2017-10-30T04:16:59.667Z,98.26
2017-10-30T04:17:59.581Z,98.26
2017-10-30T04:18:59.558Z,98.45
2017-10-30T04:19:59.536Z,98.16
2017-10-30T04:20:59.515Z,98.07
2017-10-30T04:21:59.534Z,98.73
2017-10-30T04:22:59.510Z,98.26
2017-10-30T04:23:59.458Z,98.73
2017-10-30T04:24:59.430Z,98.26
2017-10-30T04:25:59.445Z,98.73
2017-10-30T04:26:59.437Z,99.11
2017-10-30T04:27:59.373Z,98.16
2017-10-30T04:28:59.343Z,98.26
2017-10-30T04:29:59.325Z,98.35
2017-10-30T04:30:59.297Z,98.45
2017-10-30T04:31:59.313Z,99.30
2017-10-30T04:32:59.263Z,99.21
2017-10-30T04:33:59.239Z,98.45
2017-10-30T04:34:59.246Z,98.73
2017-10-30T04:35:59.239Z,98.26
2017-10-30T04:36:59.170Z,98.35
2017-10-30T04:37:59.144Z,98.26
2017-10-30T04:38:59.123Z,98.73
2017-10-30T04:39:59.101Z,98.35
2017-10-30T04:40:59.119Z,98.64
2017-10-30T04:41:59.064Z,98.45
2017-10-30T04:42:59.082Z,98.26
2017-10-30T04:43:59.015Z,99.11
2017-10-30T04:44:59.002Z,98.07
2017-10-30T04:45:58.970Z,98.16
2017-10-30T04:46:58.950Z,98.26
2017-10-30T04:47:58.971Z,98.45
2017-10-30T04:49:01.513Z,98.54
2017-10-30T04:49:58.888Z,98.54
2017-10-30T04:50:58.865Z,98.45
2017-10-30T04:52:08.556Z,98.16
2017-10-30T04:53:06.647Z,97.78
2017-10-30T04:53:58.816Z,98.26
2017-10-30T04:54:58.782Z,98.26
2017-10-30T04:55:58.807Z,98.35
2017-10-30T04:56:58.738Z,98.26
2017-10-30T04:57:58.712Z,98.07
2017-10-30T04:58:58.702Z,98.73
2017-10-30T04:59:58.683Z,98.16
2017-10-30T05:00:58.703Z,97.69
2017-10-30T05:01:58.626Z,98.26
2017-10-30T05:02:58.603Z,98.35
2017-10-30T05:03:58.584Z,98.54
2017-10-30T05:04:58.559Z,99.30
2017-10-30T05:05:58.576Z,98.83
2017-10-30T05:06:58.517Z,98.92
2017-10-30T05:07:58.527Z,98.45
2017-10-30T05:08:58.488Z,99.02
2017-10-30T05:09:58.460Z,99.40
2017-10-30T05:10:58.432Z,98.83
2017-10-30T05:11:58.409Z,99.11
2017-10-30T05:12:58.419Z,99.58
2017-10-30T05:13:58.364Z,99.26
2017-10-30T05:14:58.342Z,99.16
2017-10-30T05:15:58.324Z,99.44
2017-10-30T05:16:58.297Z,99.73
2017-10-30T05:17:58.306Z,99.63
2017-10-30T05:18:58.302Z,99.82
2017-10-30T05:19:58.239Z,99.99
2017-10-30T05:20:58.212Z,99.91
2017-10-30T05:21:58.193Z,99.63
2017-10-30T05:22:58.168Z,99.73
2017-10-30T05:23:58.200Z,99.99
2017-10-30T05:24:58.128Z,99.99
2017-10-30T05:25:58.143Z,99.99
2017-10-30T05:26:58.088Z,99.82
2017-10-30T05:27:58.061Z,99.44
2017-10-30T05:28:58.038Z,99.68
2017-10-30T05:29:58.015Z,99.68
2017-10-30T05:30:58.056Z,99.77
2017-10-30T05:31:57.979Z,99.97
2017-10-30T05:32:57.960Z,99.77
2017-10-30T05:33:57.932Z,99.87
2017-10-30T05:34:57.907Z,99.97
2017-10-30T05:35:57.944Z,99.49
2017-10-30T05:36:57.875Z,99.77
2017-10-30T05:37:57.844Z,99.40
2017-10-30T05:38:57.828Z,99.02
2017-10-30T05:39:57.804Z,99.02
2017-10-30T05:40:57.817Z,99.02
2017-10-30T05:41:57.757Z,99.49
2017-10-30T05:42:57.732Z,99.49
2017-10-30T05:43:57.728Z,99.68
2017-10-30T05:45:07.619Z,98.92
2017-10-30T05:45:57.710Z,99.21
2017-10-30T05:46:57.649Z,98.83
2017-10-30T05:47:57.621Z,99.30
2017-10-30T05:48:57.600Z,98.92
2017-10-30T05:49:57.578Z,99.40
2017-10-30T05:50:57.607Z,99.49
2017-10-30T05:51:57.580Z,99.68
2017-10-30T05:52:57.519Z,99.77
2017-10-30T05:53:57.492Z,99.40
2017-10-30T05:54:57.474Z,99.87
2017-10-30T05:55:57.448Z,99.30
2017-10-30T05:56:57.473Z,99.30
2017-10-30T05:57:57.407Z,99.68
2017-10-30T05:58:57.431Z,99.21
2017-10-30T05:59:57.363Z,99.49
2017-10-30T06:00:57.339Z,99.49
2017-10-30T06:01:57.324Z,99.49
2017-10-30T06:02:57.302Z,99.49
2017-10-30T06:03:57.315Z,99.49
2017-10-30T06:04:57.258Z,99.99
2017-10-30T06:05:57.273Z,99.77
2017-10-30T06:06:57.213Z,99.77
2017-10-30T06:08:07.671Z,99.40
2017-10-30T06:08:57.168Z,99.99
2017-10-30T06:09:57.155Z,99.68
2017-10-30T06:10:57.160Z,99.99
2017-10-30T06:11:57.137Z,99.87
2017-10-30T06:12:57.080Z,99.97
2017-10-30T06:13:57.094Z,99.77
2017-10-30T06:14:57.036Z,99.99
2017-10-30T06:15:57.019Z,99.99
2017-10-30T06:16:56.993Z,99.99
2017-10-30T06:17:56.976Z,99.99
2017-10-30T06:18:56.985Z,99.99
2017-10-30T06:19:56.927Z,99.87
2017-10-30T06:20:56.953Z,99.99
2017-10-30T06:21:56.887Z,99.99
2017-10-30T06:22:56.873Z,99.99
2017-10-30T06:23:56.841Z,99.99
2017-10-30T06:24:56.818Z,99.99
2017-10-30T06:25:56.845Z,99.40
2017-10-30T06:26:56.774Z,99.77
2017-10-30T06:27:56.757Z,99.99
2017-10-30T06:28:56.732Z,99.68
2017-10-30T06:29:56.719Z,99.77
2017-10-30T06:30:56.861Z,99.40
2017-10-30T06:31:56.667Z,99.49
2017-10-30T06:32:56.645Z,99.49
2017-10-30T06:33:56.633Z,99.49
2017-10-30T06:34:56.601Z,99.49
2017-10-30T06:35:56.626Z,99.68
2017-10-30T06:36:56.599Z,99.11
2017-10-30T06:38:08.192Z,98.92
2017-10-30T06:38:56.525Z,99.02
2017-10-30T06:39:56.541Z,99.21
2017-10-30T06:40:56.480Z,98.54
2017-10-30T06:41:56.457Z,98.69
2017-10-30T06:42:56.432Z,98.54
2017-10-30T06:43:56.409Z,98.31
2017-10-30T06:44:56.425Z,98.59
2017-10-30T06:45:56.366Z,98.26
2017-10-30T06:46:56.352Z,98.31
2017-10-30T06:47:56.354Z,98.31
2017-10-30T06:48:56.311Z,98.21
2017-10-30T06:49:56.274Z,98.50
2017-10-30T06:50:56.266Z,98.59
2017-10-30T06:51:56.285Z,98.40
2017-10-30T06:52:56.216Z,98.40
2017-10-30T06:53:56.193Z,98.59
2017-10-30T06:54:56.172Z,98.69
2017-10-30T06:55:56.148Z,98.50
2017-10-30T06:56:56.162Z,97.92
2017-10-30T06:57:56.108Z,98.40
2017-10-30T06:58:56.100Z,98.21
2017-10-30T06:59:56.059Z,97.92
2017-10-30T07:00:56.046Z,98.21
2017-10-30T07:01:56.050Z,97.55
2017-10-30T07:02:55.997Z,97.64
2017-10-30T07:03:55.974Z,97.55
2017-10-30T07:04:55.949Z,97.55
2017-10-30T07:05:55.940Z,97.27
2017-10-30T07:06:55.960Z,97.36
2017-10-30T07:07:55.929Z,96.98
2017-10-30T07:08:55.872Z,97.27
2017-10-30T07:09:55.927Z,97.07
2017-10-30T07:10:55.827Z,97.27
2017-10-30T07:11:55.813Z,97.27
2017-10-30T07:12:55.787Z,96.60
2017-10-30T07:13:55.826Z,97.17
2017-10-30T07:14:55.753Z,97.27
2017-10-30T07:15:55.720Z,97.17
2017-10-30T07:16:55.699Z,97.27
2017-10-30T07:17:55.680Z,96.60
2017-10-30T07:18:55.692Z,96.79
2017-10-30T07:19:55.635Z,97.27
2017-10-30T07:20:55.620Z,97.07
2017-10-30T07:22:05.222Z,96.60
2017-10-30T07:22:55.595Z,96.69
2017-10-30T07:23:55.592Z,96.69
2017-10-30T07:24:55.528Z,96.12
2017-10-30T07:25:55.511Z,96.65
2017-10-30T07:26:55.489Z,96.22
2017-10-30T07:27:55.539Z,96.55
2017-10-30T07:28:55.450Z,96.17
2017-10-30T07:29:55.435Z,96.08
2017-10-30T07:30:55.445Z,95.41
2017-10-30T07:31:55.393Z,95.60
2017-10-30T07:32:55.416Z,95.32
2017-10-30T07:33:55.391Z,95.41
2017-10-30T07:34:55.333Z,95.51
2017-10-30T07:35:55.307Z,95.41
2017-10-30T07:36:55.331Z,94.03
2017-10-30T07:37:55.258Z,94.37
2017-10-30T07:38:55.300Z,93.55
2017-10-30T07:39:55.274Z,93.27
2017-10-30T07:40:55.220Z,94.60
2017-10-30T07:41:55.207Z,91.85
2017-10-30T07:42:55.153Z,90.99
2017-10-30T07:43:55.133Z,91.28
2017-10-30T07:44:55.166Z,92.03
2017-10-30T07:45:55.096Z,91.28
2017-10-30T07:46:55.077Z,91.66
2017-10-30T07:47:55.049Z,91.66
2017-10-30T07:48:55.031Z,91.37
2017-10-30T07:50:02.840Z,92.13
2017-10-30T07:50:55.803Z,91.18
2017-10-30T07:51:54.974Z,89.94
2017-10-30T07:52:55.852Z,90.61
2017-10-30T07:53:54.933Z,91.85
2017-10-30T07:54:54.923Z,92.03
2017-10-30T07:55:54.927Z,91.66
2017-10-30T07:56:54.903Z,93.37
2017-10-30T07:57:54.849Z,92.13
2017-10-30T07:58:54.838Z,91.47
2017-10-30T07:59:54.818Z,90.99
2017-10-30T08:00:54.792Z,91.56
2017-10-30T08:01:54.806Z,91.85
2017-10-30T08:02:54.749Z,90.70
2017-10-30T08:03:54.738Z,89.89
2017-10-30T08:04:54.716Z,82.60
2017-10-30T08:05:54.690Z,75.24
2017-10-30T08:06:54.704Z,69.21
2017-10-30T08:07:54.670Z,65.23
2017-10-30T08:08:54.635Z,62.40
2017-10-30T08:09:54.620Z,61.22
2017-10-30T08:10:54.632Z,60.39
2017-10-30T08:11:54.625Z,62.27
2017-10-30T08:12:54.562Z,66.41
2017-10-30T08:13:54.544Z,69.43
2017-10-30T08:14:54.527Z,71.58
2017-10-30T08:15:54.513Z,73.83
2017-10-30T08:16:54.560Z,74.31
2017-10-30T08:17:54.473Z,76.12
2017-10-30T08:18:54.462Z,76.59
2017-10-30T08:19:54.454Z,77.03
2017-10-30T08:20:54.421Z,78.17
2017-10-30T08:21:54.454Z,78.85
2017-10-30T08:22:54.432Z,79.13
2017-10-30T08:24:04.325Z,79.19
2017-10-30T08:24:54.391Z,80.55
2017-10-30T08:25:54.335Z,81.37
2017-10-30T08:26:54.390Z,81.03
2017-10-30T08:27:54.322Z,80.36
2017-10-30T08:28:54.284Z,80.08
2017-10-30T08:29:54.263Z,81.60
2017-10-30T08:30:54.252Z,81.56
2017-10-30T08:31:54.277Z,80.61
2017-10-30T08:32:54.209Z,80.46
2017-10-30T08:33:54.209Z,79.89
2017-10-30T08:34:54.232Z,80.90
2017-10-30T08:35:54.179Z,81.89
2017-10-30T08:36:54.151Z,81.85
2017-10-30T08:37:54.124Z,81.76
2017-10-30T08:38:54.102Z,81.47
2017-10-30T08:39:54.148Z,80.61
2017-10-30T08:40:54.071Z,80.99
2017-10-30T08:41:54.057Z,82.70
2017-10-30T08:42:54.032Z,82.42
2017-10-30T08:43:54.019Z,82.51
2017-10-30T08:44:54.033Z,82.04
2017-10-30T08:45:54.030Z,82.14
2017-10-30T08:46:53.965Z,82.51
2017-10-30T08:47:53.946Z,83.09
2017-10-30T08:48:53.936Z,83.85
2017-10-30T08:49:53.905Z,84.61
2017-10-30T08:50:53.953Z,82.90
2017-10-30T08:51:53.871Z,83.18
2017-10-30T08:52:53.858Z,83.09
2017-10-30T08:53:53.836Z,82.70
2017-10-30T08:54:53.815Z,84.04
2017-10-30T08:55:53.838Z,83.28
2017-10-30T08:57:03.423Z,83.18
2017-10-30T08:57:53.781Z,83.18
2017-10-30T08:58:53.740Z,82.75
2017-10-30T08:59:53.717Z,81.60
2017-10-30T09:00:53.759Z,78.25
2017-10-30T09:01:53.691Z,71.37
2017-10-30T09:02:53.664Z,68.00
2017-10-30T09:03:53.644Z,63.96
2017-10-30T09:04:53.638Z,61.51
2017-10-30T09:05:53.658Z,59.72
2017-10-30T09:06:53.592Z,58.18
2017-10-30T09:07:53.577Z,56.42
2017-10-30T09:08:53.559Z,54.79
2017-10-30T09:09:53.546Z,54.41
2017-10-30T09:10:53.596Z,55.44
2017-10-30T09:11:53.516Z,56.08
2017-10-30T09:12:53.494Z,57.48
2017-10-30T09:13:53.477Z,57.83
2017-10-30T09:14:53.463Z,55.44
2017-10-30T09:15:53.511Z,57.48
2017-10-30T09:18:31.966Z,64.72
2017-10-30T09:19:31.937Z,66.22
2017-10-30T09:20:31.960Z,67.83
2017-10-30T09:21:31.949Z,68.66
2017-10-30T09:22:31.866Z,71.11
2017-10-30T09:23:31.856Z,72.92
2017-10-30T09:24:31.836Z,73.77
2017-10-30T09:25:31.832Z,74.63
2017-10-30T09:26:31.841Z,74.40
2017-10-30T09:27:31.796Z,75.36
2017-10-30T09:28:31.798Z,75.93
2017-10-30T09:29:31.757Z,75.64
2017-10-30T09:30:31.806Z,76.03
2017-10-30T09:31:41.627Z,76.31
2017-10-30T09:32:31.802Z,78.03
2017-10-30T09:33:31.695Z,76.59
2017-10-30T09:34:31.713Z,75.93
2017-10-30T09:35:31.709Z,76.50
2017-10-30T09:36:31.685Z,77.45
2017-10-30T09:37:31.689Z,77.26
2017-10-30T09:38:31.607Z,76.79
2017-10-30T09:39:31.598Z,75.93
2017-10-30T09:40:31.588Z,76.50
2017-10-30T09:41:31.607Z,74.92
2017-10-30T09:42:31.593Z,72.32
2017-10-30T09:43:31.523Z,68.48
2017-10-30T09:44:31.508Z,63.19
2017-10-30T09:45:32.115Z,60.29
2017-10-30T09:46:31.491Z,57.48
2017-10-30T09:47:31.531Z,56.59
2017-10-30T09:48:31.453Z,55.94
2017-10-30T09:49:31.426Z,55.46
2017-10-30T09:50:31.410Z,54.96
2017-10-30T09:51:31.403Z,55.85
2017-10-30T09:52:31.442Z,55.18
2017-10-30T09:53:31.400Z,55.60
2017-10-30T09:54:31.362Z,58.03
2017-10-30T09:55:31.334Z,60.68
2017-10-30T09:56:31.378Z,62.37
2017-10-30T09:57:41.178Z,63.20
2017-10-30T09:58:32.148Z,65.01
2017-10-30T09:59:31.288Z,66.22
2017-10-30T10:00:31.268Z,67.07
2017-10-30T10:01:31.314Z,67.27
2017-10-30T10:02:31.283Z,68.12
2017-10-30T10:03:31.218Z,68.51
2017-10-30T10:04:31.199Z,69.08
2017-10-30T10:05:31.183Z,68.51
2017-10-30T10:06:31.203Z,68.70
2017-10-30T10:07:31.248Z,68.22
2017-10-30T10:08:31.173Z,68.22
2017-10-30T10:09:41.211Z,69.27
2017-10-30T10:10:40.761Z,68.12
2017-10-30T10:11:31.092Z,67.74
2017-10-30T10:12:31.112Z,68.12
2017-10-30T10:13:31.116Z,68.12
2017-10-30T10:14:31.052Z,67.87
2017-10-30T10:15:31.052Z,67.87
2017-10-30T10:16:31.014Z,66.72
2017-10-30T10:17:31.010Z,65.39
2017-10-30T10:18:31.033Z,66.44
2017-10-30T10:19:30.963Z,66.25
2017-10-30T10:20:30.983Z,66.72
2017-10-30T10:21:30.951Z,67.01
2017-10-30T10:22:30.917Z,66.25
2017-10-30T10:23:30.957Z,66.35
2017-10-30T10:24:30.893Z,66.35
2017-10-30T10:25:30.878Z,65.20
2017-10-30T10:26:30.857Z,65.20
2017-10-30T10:27:30.844Z,65.20
2017-10-30T10:28:30.871Z,65.87
2017-10-30T10:29:30.809Z,66.25
2017-10-30T10:30:30.800Z,67.36
2017-10-30T10:31:30.835Z,66.60
2017-10-30T10:32:30.766Z,67.55
2017-10-30T10:33:30.784Z,68.16
2017-10-30T10:34:30.731Z,66.50
2017-10-30T10:35:30.719Z,66.63
2017-10-30T10:36:30.698Z,65.77
2017-10-30T10:37:30.687Z,66.82
2017-10-30T10:38:30.731Z,66.35
2017-10-30T10:39:30.659Z,66.88
2017-10-30T10:40:30.644Z,66.98
2017-10-30T10:41:30.626Z,66.31
2017-10-30T10:42:30.609Z,66.15
2017-10-30T10:43:30.627Z,65.39
2017-10-30T10:44:30.575Z,65.48
2017-10-30T10:45:30.558Z,65.58
2017-10-30T10:46:30.556Z,65.52
2017-10-30T10:47:30.528Z,63.26
2017-10-30T10:48:30.573Z,61.57
2017-10-30T10:49:30.502Z,61.28
2017-10-30T10:50:30.484Z,60.04
2017-10-30T10:51:30.470Z,59.66
2017-10-30T10:52:30.458Z,59.56
2017-10-30T10:53:30.476Z,59.08
2017-10-30T10:54:30.425Z,59.20
2017-10-30T10:55:30.411Z,59.11
2017-10-30T10:56:30.423Z,57.68
2017-10-30T10:57:30.374Z,57.29
2017-10-30T10:58:30.366Z,56.82
2017-10-30T10:59:30.341Z,57.84
2017-10-30T11:00:30.336Z,58.22
2017-10-30T11:01:30.352Z,57.77
2017-10-30T11:02:30.298Z,56.98
2017-10-30T11:03:40.306Z,57.75
2017-10-30T11:04:30.258Z,57.26
2017-10-30T11:05:30.239Z,57.39
2017-10-30T11:06:30.284Z,57.36
2017-10-30T11:07:30.208Z,57.36
2017-10-30T11:08:30.198Z,56.50
2017-10-30T11:09:30.171Z,57.17
2017-10-30T11:10:30.159Z,56.40
2017-10-30T11:11:30.188Z,58.29
2017-10-30T11:12:30.124Z,59.81
2017-10-30T11:13:30.109Z,60.64
2017-10-30T11:14:30.099Z,61.29
2017-10-30T11:15:30.076Z,61.76
2017-10-30T11:16:30.101Z,62.24
2017-10-30T11:17:30.046Z,62.15
2017-10-30T11:18:30.026Z,62.62
2017-10-30T11:19:30.015Z,62.34
2017-10-30T11:20:29.989Z,62.52
2017-10-30T11:21:30.013Z,62.43
2017-10-30T11:22:30.005Z,62.05
2017-10-30T11:23:29.963Z,62.15
2017-10-30T11:24:29.925Z,62.43
2017-10-30T11:25:29.909Z,62.34
2017-10-30T11:26:29.909Z,62.34
2017-10-30T11:27:29.921Z,63.29
2017-10-30T11:28:29.921Z,63.48
2017-10-30T11:29:29.847Z,63.39
2017-10-30T11:30:29.875Z,62.43
2017-10-30T11:31:29.821Z,62.91
2017-10-30T11:32:29.842Z,62.81
2017-10-30T11:33:29.778Z,63.10
2017-10-30T11:34:29.769Z,63.10
2017-10-30T11:35:29.772Z,62.24
2017-10-30T11:36:29.734Z,63.10
2017-10-30T11:37:29.751Z,63.10
2017-10-30T11:38:29.706Z,62.34
2017-10-30T11:39:29.729Z,61.76
2017-10-30T11:40:29.669Z,60.81
2017-10-30T11:41:29.648Z,60.81
2017-10-30T11:42:29.643Z,62.05
2017-10-30T11:43:29.632Z,62.62
2017-10-30T11:44:29.634Z,62.30
2017-10-30T11:45:29.592Z,62.71
2017-10-30T11:46:37.901Z,63.76
2017-10-30T11:47:29.560Z,62.15
2017-10-30T11:48:29.547Z,62.15
2017-10-30T11:49:29.522Z,60.81
2017-10-30T11:50:29.506Z,60.33
2017-10-30T11:51:29.492Z,60.55
2017-10-30T11:52:29.513Z,59.66
2017-10-30T11:53:29.452Z,60.33
2017-10-30T11:54:29.459Z,60.61
2017-10-30T11:55:39.386Z,60.81
2017-10-30T11:56:39.451Z,61.47
2017-10-30T11:57:29.425Z,61.47
2017-10-30T11:58:29.374Z,61.29
2017-10-30T11:59:29.390Z,61.00
2017-10-30T12:00:29.337Z,61.29
2017-10-30T12:01:29.332Z,61.76
2017-10-30T12:02:29.348Z,61.86
2017-10-30T12:03:29.288Z,62.62
2017-10-30T12:04:29.276Z,63.67
2017-10-30T12:05:29.276Z,63.07
2017-10-30T12:06:29.325Z,64.12
2017-10-30T12:07:29.226Z,64.21
2017-10-30T12:08:29.215Z,65.36
2017-10-30T12:09:29.195Z,65.55
2017-10-30T12:10:29.181Z,66.31
2017-10-30T12:11:29.211Z,66.22
2017-10-30T12:12:29.148Z,66.69
2017-10-30T12:13:29.122Z,67.55
2017-10-30T12:14:29.117Z,68.03
2017-10-30T12:15:29.132Z,67.93
2017-10-30T12:16:29.075Z,68.03
2017-10-30T12:17:29.064Z,68.41
2017-10-30T12:18:29.050Z,68.03
2017-10-30T12:19:29.022Z,68.28
2017-10-30T12:20:37.496Z,68.28
2017-10-30T12:21:28.995Z,69.23
2017-10-30T12:22:29.015Z,68.57
2017-10-30T12:23:28.961Z,67.71
2017-10-30T12:24:28.953Z,68.88
2017-10-30T12:25:28.933Z,68.22
2017-10-30T12:26:28.966Z,67.55
2017-10-30T12:27:28.910Z,68.32
2017-10-30T12:28:28.875Z,69.04
2017-10-30T12:29:28.865Z,68.18
2017-10-30T12:30:28.845Z,68.12
2017-10-30T12:31:28.873Z,68.28
2017-10-30T12:32:28.846Z,68.12
2017-10-30T12:33:28.792Z,68.95
2017-10-30T12:34:28.779Z,69.14
2017-10-30T12:35:28.808Z,69.52
2017-10-30T12:36:28.738Z,68.76
2017-10-30T12:37:28.741Z,68.47
2017-10-30T12:38:28.717Z,68.66
2017-10-30T12:39:28.687Z,69.23
2017-10-30T12:40:28.717Z,67.99
2017-10-30T12:41:28.657Z,68.28
2017-10-30T12:42:28.637Z,68.66
2017-10-30T12:43:28.667Z,68.09
2017-10-30T12:44:28.611Z,68.09
2017-10-30T12:45:28.642Z,68.95
2017-10-30T12:46:28.573Z,67.42
2017-10-30T12:47:28.564Z,67.23
2017-10-30T12:48:28.533Z,67.23
2017-10-30T12:49:28.517Z,67.42
2017-10-30T12:50:28.555Z,67.14
2017-10-30T12:51:28.494Z,67.71
2017-10-30T12:52:28.472Z,67.23
2017-10-30T12:53:28.455Z,67.46
2017-10-30T12:54:38.513Z,67.36
2017-10-30T12:55:28.487Z,68.03